Time;durP1;ratioP1;P1;durP2;ratioP2;P2;SDS_P1;SDS_P2;PMS_P1;PMS_P2;Temp;Humidity;BMP_temperature;BMP_pressure;BME280_temperature;BME280_humidity;BME280_pressure;Samples;Min_cycle;Max_cycle;Signal;HPM_P1;HPM_P2
2021/06/27 00:01:45;;;;;;;5.38;1.70;;;;;;;;;;5015288;28;20025;-67
2021/06/27 00:04:13;;;;;;;4.85;1.50;;;;;;;;;;5014978;28;20084;-67
2021/06/27 00:06:39;;;;;;;5.65;1.42;;;;;;;;;;5015076;28;20029;-67
2021/06/27 00:09:06;;;;;;;7.18;1.80;;;;;;;;;;5015298;28;20029;-67
2021/06/27 00:11:32;;;;;;;4.03;1.92;;;;;;;;;;5014795;28;20029;-67
2021/06/27 00:13:58;;;;;;;3.25;1.55;;;;;;;;;;5015199;28;20018;-67
2021/06/27 00:16:27;;;;;;;7.03;1.70;;;;;;;;;;5014987;28;20100;-67
2021/06/27 00:18:53;;;;;;;6.80;1.55;;;;;;;;;;5014445;28;20032;-67
2021/06/27 00:21:19;;;;;;;6.25;1.95;;;;;;;;;;5014846;28;20072;-67
2021/06/27 00:23:47;;;;;;;4.93;1.60;;;;;;;;;;5014936;28;20034;-67
2021/06/27 00:26:14;;;;;;;6.07;1.63;;;;;;;;;;5014847;28;20018;-67
2021/06/27 00:28:41;;;;;;;4.60;1.38;;;;;;;;;;5014949;28;20057;-67
2021/06/27 00:31:07;;;;;;;3.17;1.55;;;;;;;;;;5014659;28;20488;-67
2021/06/27 00:33:33;;;;;;;5.75;1.83;;;;;;;;;;5014372;28;20068;-67
2021/06/27 00:36:00;;;;;;;5.65;1.75;;;;;;;;;;5014612;28;20091;-67
2021/06/27 00:38:26;;;;;;;4.32;1.73;;;;;;;;;;5014574;28;20486;-67
2021/06/27 00:40:52;;;;;;;4.20;1.65;;;;;;;;;;5014483;28;20034;-67
2021/06/27 00:43:18;;;;;;;4.35;1.85;;;;;;;;;;5014267;28;20088;-67
2021/06/27 00:45:44;;;;;;;12.32;1.98;;;;;;;;;;5014343;28;20034;-67
2021/06/27 00:48:11;;;;;;;3.38;1.58;;;;;;;;;;5014249;28;20041;-67
2021/06/27 00:50:47;;;;;;;7.60;1.80;;;;;;;;;;5014420;28;20053;-67
2021/06/27 00:53:14;;;;;;;5.95;1.90;;;;;;;;;;5014120;28;20025;-67
2021/06/27 00:55:40;;;;;;;3.55;2.03;;;;;;;;;;5014333;28;20033;-67
2021/06/27 00:58:06;;;;;;;2.67;1.60;;;;;;;;;;5012788;28;20037;-67
2021/06/27 01:00:33;;;;;;;6.57;2.05;;;;;;;;;;5011243;28;20053;-67
2021/06/27 01:02:59;;;;;;;3.70;1.90;;;;;;;;;;5011205;28;20057;-68
2021/06/27 01:05:27;;;;;;;7.95;1.80;;;;;;;;;;5013136;28;20113;-67
2021/06/27 01:07:53;;;;;;;9.13;2.30;;;;;;;;;;5013916;28;20048;-67
2021/06/27 01:10:19;;;;;;;5.47;1.60;;;;;;;;;;5013922;28;20084;-67
2021/06/27 01:12:45;;;;;;;4.32;1.70;;;;;;;;;;5013374;28;20040;-67
2021/06/27 01:15:12;;;;;;;8.25;1.92;;;;;;;;;;5013944;28;20029;-67
2021/06/27 01:17:39;;;;;;;6.57;2.20;;;;;;;;;;5013806;28;20034;-67
2021/06/27 01:20:09;;;;;;;6.40;2.05;;;;;;;;;;5013322;28;20025;-67
2021/06/27 01:22:35;;;;;;;5.68;1.67;;;;;;;;;;5013644;28;20386;-67
2021/06/27 01:25:01;;;;;;;6.43;2.05;;;;;;;;;;5013729;28;20073;-67
2021/06/27 01:27:27;;;;;;;9.05;1.85;;;;;;;;;;5013639;28;20490;-67
2021/06/27 01:29:53;;;;;;;5.15;1.88;;;;;;;;;;5013192;28;20018;-67
2021/06/27 01:32:19;;;;;;;13.80;2.30;;;;;;;;;;5012493;28;20471;-67
2021/06/27 01:34:45;;;;;;;7.10;2.00;;;;;;;;;;5013404;28;20033;-67
2021/06/27 01:37:11;;;;;;;7.28;2.00;;;;;;;;;;5013094;28;20109;-67
2021/06/27 01:39:39;;;;;;;9.82;2.55;;;24.80;59.00;;;;;;5013231;28;20033;-67
2021/06/27 01:42:05;;;;;;;8.93;2.05;;;24.60;60.10;;;;;;5013275;28;20026;-67
2021/06/27 01:44:30;;;;;;;5.65;2.88;;;24.50;60.40;;;;;;5012770;28;20430;-67
2021/06/27 01:46:57;;;;;;;5.97;2.30;;;;;;;;;;5013448;28;20382;-67
2021/06/27 01:49:23;;;;;;;8.60;1.80;;;;;;;;;;5013564;28;20026;-67
2021/06/27 01:51:49;;;;;;;5.65;2.20;;;;;;;;;;5012967;28;20565;-67
2021/06/27 01:54:15;;;;;;;6.72;2.10;;;;;;;;;;5013377;28;20467;-67
2021/06/27 01:56:41;;;;;;;7.85;2.03;;;;;;;;;;5013106;28;20022;-67
2021/06/27 01:59:09;;;;;;;7.50;2.00;;;;;;;;;;5012975;28;20474;-68
2021/06/27 02:01:38;;;;;;;10.02;2.38;;;;;;;;;;5013356;28;20081;-67
2021/06/27 02:04:05;;;;;;;5.40;2.00;;;;;;;;;;5013398;28;20092;-67
2021/06/27 02:06:34;;;;;;;9.88;2.75;;;;;;;;;;5012937;28;20030;-67
2021/06/27 02:09:01;;;;;;;6.05;2.55;;;24.20;61.30;;;;;;5013065;28;20030;-67
2021/06/27 02:11:27;;;;;;;6.53;2.38;;;24.20;61.90;;;;;;5013189;28;20022;-67
2021/06/27 02:13:54;;;;;;;6.53;2.47;;;24.10;61.80;;;;;;5013057;28;20152;-67
2021/06/27 02:16:20;;;;;;;10.23;2.08;;;24.20;61.60;;;;;;5013141;28;20030;-67
2021/06/27 02:18:51;;;;;;;10.52;2.55;;;24.10;61.50;;;;;;5012930;28;20390;-67
2021/06/27 02:21:25;;;;;;;7.65;1.98;;;24.10;61.70;;;;;;5013041;28;20042;-67
2021/06/27 02:23:51;;;;;;;6.28;2.22;;;24.10;62.10;;;;;;5012983;28;20022;-67
2021/06/27 02:26:18;;;;;;;7.70;2.10;;;24.00;62.00;;;;;;5013083;28;20025;-67
2021/06/27 02:28:45;;;;;;;7.00;2.47;;;;;;;;;;5013289;28;20053;-67
2021/06/27 02:31:11;;;;;;;9.05;2.47;;;;;;;;;;5013269;28;20026;-67
2021/06/27 02:33:38;;;;;;;6.32;2.45;;;;;;;;;;5012889;28;20032;-67
2021/06/27 02:36:04;;;;;;;8.13;2.50;;;;;;;;;;5012828;28;20026;-67
2021/06/27 02:38:30;;;;;;;6.10;2.38;;;;;;;;;;5013093;28;20022;-68
2021/06/27 02:40:57;;;;;;;4.82;2.13;;;;;;;;;;5012950;28;20033;-68
2021/06/27 02:43:23;;;;;;;7.18;2.03;;;;;;;;;;5015528;28;20046;-67
2021/06/27 02:45:49;;;;;;;5.53;2.20;;;;;;;;;;5016371;28;20034;-67
2021/06/27 02:48:16;;;;;;;7.68;2.50;;;;;;;;;;5016366;28;20482;-68
2021/06/27 02:50:42;;;;;;;10.48;2.17;;;;;;;;;;5016605;28;20025;-67
2021/06/27 02:53:08;;;;;;;8.50;2.60;;;;;;;;;;5016426;28;20045;-67
2021/06/27 02:55:35;;;;;;;6.82;1.90;;;;;;;;;;5016409;28;20104;-67
2021/06/27 02:58:01;;;;;;;5.47;2.17;;;;;;;;;;5016499;28;20031;-67
2021/06/27 03:00:29;;;;;;;9.25;2.45;;;;;;;;;;5016250;28;20026;-67
2021/06/27 03:02:55;;;;;;;7.00;2.50;;;;;;;;;;5015967;28;20037;-68
2021/06/27 03:05:22;;;;;;;4.68;2.17;;;24.00;62.30;;;;;;5016022;28;20033;-67
2021/06/27 03:07:47;;;;;;;4.85;2.63;;;23.70;64.00;;;;;;5016189;28;20030;-67
2021/06/27 03:10:15;;;;;;;4.80;2.42;;;23.70;63.70;;;;;;5016150;28;20056;-68
2021/06/27 03:12:42;;;;;;;7.05;2.50;;;23.60;63.60;;;;;;5016058;28;20076;-67
2021/06/27 03:15:10;;;;;;;6.93;2.30;;;23.60;63.70;;;;;;5016242;28;20022;-67
2021/06/27 03:17:36;;;;;;;7.20;2.55;;;23.60;63.70;;;;;;5015970;28;20034;-67
2021/06/27 03:20:04;;;;;;;4.72;2.42;;;23.50;63.30;;;;;;5016248;28;20096;-67
2021/06/27 03:22:30;;;;;;;5.07;2.28;;;23.50;63.30;;;;;;5015824;28;20022;-67
2021/06/27 03:24:55;;;;;;;10.13;2.28;;;23.50;63.60;;;;;;5015871;28;20058;-70
2021/06/27 03:27:21;;;;;;;9.38;2.15;;;23.50;63.80;;;;;;5015675;28;20482;-67
2021/06/27 03:29:47;;;;;;;7.15;2.42;;;23.50;63.80;;;;;;5016007;28;20053;-67
2021/06/27 03:32:14;;;;;;;7.15;2.28;;;;;;;;;;5015312;28;20482;-67
2021/06/27 03:34:39;;;;;;;5.22;1.92;;;23.50;64.00;;;;;;5015543;28;20026;-67
2021/06/27 03:37:05;;;;;;;4.63;2.28;;;23.40;64.40;;;;;;5015812;28;20036;-67
2021/06/27 03:39:32;;;;;;;9.20;2.40;;;;;;;;;;5015713;28;20037;-67
2021/06/27 03:41:58;;;;;;;3.83;2.33;;;;;;;;;;5015332;28;20026;-67
2021/06/27 03:44:25;;;;;;;4.15;1.95;;;;;;;;;;5015162;28;20054;-67
2021/06/27 03:46:52;;;;;;;5.93;2.40;;;;;;;;;;5015423;28;20029;-67
2021/06/27 03:49:18;;;;;;;6.28;2.33;;;;;;;;;;5015637;28;20064;-67
2021/06/27 03:51:45;;;;;;;7.93;2.42;;;;;;;;;;5015624;28;20319;-67
2021/06/27 03:54:11;;;;;;;3.58;2.33;;;;;;;;;;5014528;28;20378;-67
2021/06/27 03:56:37;;;;;;;4.15;2.13;;;;;;;;;;5015345;28;20041;-67
2021/06/27 03:59:04;;;;;;;4.85;2.30;;;;;;;;;;5015418;28;20525;-67
2021/06/27 04:01:31;;;;;;;6.18;2.22;;;;;;;;;;5015219;28;20049;-67
2021/06/27 04:03:57;;;;;;;8.35;2.13;;;;;;;;;;5014955;28;20022;-67
2021/06/27 04:06:23;;;;;;;5.43;2.20;;;;;;;;;;5015034;28;20037;-67
2021/06/27 04:08:49;;;;;;;8.77;2.40;;;;;;;;;;5015171;28;20109;-67
2021/06/27 04:11:15;;;;;;;4.90;2.53;;;;;;;;;;5015057;28;20083;-67
2021/06/27 04:13:41;;;;;;;4.93;2.45;;;23.40;63.80;;;;;;5014767;28;20025;-67
2021/06/27 04:16:07;;;;;;;6.80;2.50;;;;;;;;;;5014948;28;20022;-67
2021/06/27 04:18:34;;;;;;;8.43;2.15;;;;;;;;;;5014914;28;20050;-67
2021/06/27 04:21:00;;;;;;;14.00;2.28;;;;;;;;;;5014838;28;20028;-67
2021/06/27 04:23:27;;;;;;;7.43;2.22;;;;;;;;;;5014719;28;20064;-68
2021/06/27 04:25:53;;;;;;;5.28;2.20;;;;;;;;;;5014809;28;20097;-67
2021/06/27 04:28:19;;;;;;;3.05;2.00;;;;;;;;;;5014461;28;20080;-68
2021/06/27 04:30:46;;;;;;;4.75;2.10;;;;;;;;;;5014661;28;20050;-67
2021/06/27 04:33:13;;;;;;;9.93;2.25;;;;;;;;;;5014470;28;20033;-67
2021/06/27 04:35:40;;;;;;;4.35;2.00;;;;;;;;;;5014665;28;20026;-67
2021/06/27 04:38:10;;;;;;;7.60;2.05;;;;;;;;;;5014713;28;20030;-68
2021/06/27 04:40:37;;;;;;;3.10;2.00;;;;;;;;;;5014617;28;20029;-67
2021/06/27 04:43:03;;;;;;;8.15;2.13;;;;;;;;;;5014169;28;20041;-67
2021/06/27 04:45:29;;;;;;;4.53;2.55;;;;;;;;;;5014531;28;20049;-67
2021/06/27 04:47:55;;;;;;;5.90;2.78;;;;;;;;;;5014355;28;20034;-67
2021/06/27 04:50:21;;;;;;;7.80;2.42;;;;;;;;;;5014164;28;20037;-68
2021/06/27 04:52:51;;;;;;;4.82;2.70;;;;;;;;;;5014072;28;20061;-67
2021/06/27 04:55:17;;;;;;;6.15;2.60;;;;;;;;;;5014085;28;20036;-68
2021/06/27 04:57:43;;;;;;;9.15;2.90;;;;;;;;;;5014029;28;20033;-67
2021/06/27 05:00:10;;;;;;;7.55;3.58;;;;;;;;;;5014028;28;20026;-67
2021/06/27 05:02:36;;;;;;;6.38;2.80;;;;;;;;;;5014549;28;20029;-67
2021/06/27 05:05:04;;;;;;;7.50;2.67;;;;;;;;;;5014253;28;20029;-67
2021/06/27 05:07:30;;;;;;;6.55;3.17;;;;;;;;;;5014103;28;20045;-68
2021/06/27 05:09:56;;;;;;;9.35;4.00;;;;;;;;;;5013886;28;20022;-67
2021/06/27 05:12:22;;;;;;;12.60;6.15;;;;;;;;;;5013780;28;20032;-67
2021/06/27 05:14:48;;;;;;;13.18;5.50;;;;;;;;;;5013948;28;20033;-67
2021/06/27 05:17:14;;;;;;;10.30;4.97;;;;;;;;;;5013897;28;20029;-67
2021/06/27 05:19:40;;;;;;;7.70;4.25;;;;;;;;;;5013840;28;20022;-67
2021/06/27 05:22:08;;;;;;;5.05;3.47;;;;;;;;;;5013617;28;20097;-67
2021/06/27 05:24:34;;;;;;;4.40;2.35;;;;;;;;;;5013903;28;20049;-67
2021/06/27 05:27:00;;;;;;;5.20;2.20;;;;;;;;;;5014009;28;20172;-67
2021/06/27 05:29:26;;;;;;;10.95;2.08;;;;;;;;;;5013875;28;20034;-67
2021/06/27 05:31:52;;;;;;;7.25;2.10;;;;;;;;;;5013635;28;20025;-68
2021/06/27 05:34:18;;;;;;;2.63;1.67;;;;;;;;;;5013594;28;20113;-67
2021/06/27 05:36:45;;;;;;;5.47;1.73;;;;;;;;;;5013580;28;20033;-67
2021/06/27 05:39:11;;;;;;;5.22;1.60;;;;;;;;;;5013775;28;20081;-68
2021/06/27 05:41:38;;;;;;;2.53;1.70;;;;;;;;;;5013805;28;20061;-67
2021/06/27 05:44:05;;;;;;;6.45;1.63;;;;;;;;;;5013556;28;20446;-67
2021/06/27 05:46:31;;;;;;;4.82;2.00;;;;;;;;;;5013289;28;20026;-68
2021/06/27 05:48:57;;;;;;;5.65;1.80;;;;;;;;;;5013374;28;20083;-67
2021/06/27 05:51:25;;;;;;;6.13;1.58;;;;;;;;;;5013515;28;20026;-67
2021/06/27 05:53:51;;;;;;;6.60;1.65;;;;;;;;;;5013211;28;20018;-67
2021/06/27 05:56:19;;;;;;;3.38;1.80;;;;;;;;;;5013393;28;20026;-68
2021/06/27 05:58:45;;;;;;;2.58;1.60;;;;;;;;;;5013434;28;20049;-67
2021/06/27 06:01:12;;;;;;;1.95;1.50;;;;;;;;;;5011987;28;20018;-67
2021/06/27 06:03:39;;;;;;;3.83;1.40;;;;;;;;;;5013545;28;20033;-67
2021/06/27 06:06:06;;;;;;;6.72;1.67;;;;;;;;;;5013362;28;20529;-68
2021/06/27 06:08:32;;;;;;;7.07;1.80;;;;;;;;;;5013187;28;20041;-67
2021/06/27 06:10:58;;;;;;;5.03;1.73;;;;;;;;;;5013281;28;20105;-67
2021/06/27 06:13:25;;;;;;;3.03;1.70;;;;;;;;;;5013547;28;20034;-67
2021/06/27 06:15:51;;;;;;;3.35;1.70;;;;;;;;;;5013124;28;20097;-67
2021/06/27 06:18:17;;;;;;;3.60;1.75;;;;;;;;;;5016333;28;20026;-67
2021/06/27 06:20:43;;;;;;;4.10;1.70;;;;;;;;;;5017212;28;20026;-67
2021/06/27 06:23:09;;;;;;;3.05;1.80;;;;;;;;;;5016959;28;20117;-67
2021/06/27 06:25:35;;;;;;;6.03;1.85;;;;;;;;;;5016874;28;20026;-67
2021/06/27 06:28:01;;;;;;;8.57;1.90;;;;;;;;;;5017004;28;20386;-67
2021/06/27 06:30:27;;;;;;;6.65;1.90;;;;;;;;;;5016953;28;20033;-67
2021/06/27 06:32:53;;;;;;;3.78;1.58;;;;;;;;;;5017112;28;20026;-67
2021/06/27 06:35:20;;;;;;;3.42;1.35;;;;;;;;;;5016802;28;20041;-67
2021/06/27 06:37:46;;;;;;;2.30;1.58;;;;;;;;;;5016922;28;20117;-67
2021/06/27 06:40:12;;;;;;;3.08;1.63;;;;;;;;;;5016868;28;20101;-67
2021/06/27 06:42:38;;;;;;;6.65;1.33;;;;;;;;;;5040655;22;20052;-67
2021/06/27 06:45:04;;;;;;;1.92;1.35;;;;;;;;;;5056330;28;20103;-67
2021/06/27 06:47:30;;;;;;;3.10;1.20;;;;;;;;;;5056140;28;20423;-67
2021/06/27 06:49:56;;;;;;;2.65;1.40;;;;;;;;;;5056281;28;20029;-67
2021/06/27 06:52:22;;;;;;;6.32;1.42;;;;;;;;;;5055984;28;20017;-67
2021/06/27 06:54:49;;;;;;;3.72;1.60;;;;;;;;;;5056450;28;20108;-68
2021/06/27 06:57:15;;;;;;;1.63;1.30;;;;;;;;;;5056549;28;20025;-68
2021/06/27 06:59:41;;;;;;;2.33;1.48;;;;;;;;;;5056071;28;20052;-67
2021/06/27 07:02:07;;;;;;;3.83;1.90;;;;;;;;;;5055965;28;20021;-70
2021/06/27 07:04:33;;;;;;;2.72;1.40;;;;;;;;;;5056043;28;20381;-68
2021/06/27 07:06:59;;;;;;;2.08;1.25;;;;;;;;;;5054559;28;20447;-67
2021/06/27 07:09:25;;;;;;;4.20;1.30;;;;;;;;;;5055987;28;20029;-67
2021/06/27 07:11:51;;;;;;;6.15;1.52;;;;;;;;;;5055851;28;20036;-68
2021/06/27 07:14:17;;;;;;;6.40;1.70;;;;;;;;;;5055725;28;20081;-67
2021/06/27 07:16:43;;;;;;;3.88;1.40;;;;;;;;;;5055908;28;20148;-68
2021/06/27 07:19:09;;;;;;;2.88;1.40;;;;;;;;;;5055689;28;20497;-67
2021/06/27 07:21:35;;;;;;;3.00;1.42;;;;;;;;;;5055706;28;20095;-67
2021/06/27 07:24:01;;;;;;;4.35;1.77;;;;;;;;;;5055549;28;20480;-68
2021/06/27 07:26:27;;;;;;;2.85;1.30;;;;;;;;;;5055734;28;20539;-68
2021/06/27 07:28:53;;;;;;;4.93;1.90;;;;;;;;;;5054472;28;20033;-69
2021/06/27 07:31:20;;;;;;;2.58;1.33;;;;;;;;;;5055598;28;20028;-67
2021/06/27 07:33:46;;;;;;;3.97;1.30;;;;;;;;;;5055448;28;20477;-69
2021/06/27 07:36:12;;;;;;;5.75;1.35;;;;;;;;;;5055355;28;20025;-68
2021/06/27 07:38:38;;;;;;;3.95;1.60;;;;;;;;;;5055131;28;20051;-68
2021/06/27 07:41:04;;;;;;;2.63;1.42;;;23.30;64.80;;;;;;5055345;28;20025;-68
2021/06/27 07:43:31;;;;;;;3.40;1.60;;;26.60;53.60;;;;;;5055127;28;20139;-68
2021/06/27 07:45:58;;;;;;;3.15;1.50;;;;;;;;;;5055522;28;20028;-68
2021/06/27 07:48:24;;;;;;;4.38;1.35;;;;;;;;;;5054828;28;20040;-68
2021/06/27 07:50:50;;;;;;;4.22;1.23;;;;;;;;;;5055262;28;20586;-68
2021/06/27 07:53:16;;;;;;;3.65;1.27;;;;;;;;;;5053828;28;20093;-67
2021/06/27 07:55:42;;;;;;;2.53;1.40;;;;;;;;;;5055096;28;20013;-68
2021/06/27 07:58:08;;;;;;;4.70;1.38;;;;;;;;;;5055318;28;20466;-67
2021/06/27 08:00:34;;;;;;;4.75;1.20;;;;;;;;;;5055077;28;20377;-67
2021/06/27 08:03:00;;;;;;;2.83;1.65;;;;;;;;;;5054967;28;20025;-67
2021/06/27 08:05:26;;;;;;;5.45;1.50;;;;;;;;;;5055080;28;20115;-67
2021/06/27 08:07:52;;;;;;;2.88;1.50;;;;;;;;;;5054741;28;20534;-67
2021/06/27 08:10:18;;;;;;;2.72;1.35;;;;;;;;;;5054628;28;20032;-67
2021/06/27 08:12:45;;;;;;;6.97;1.30;;;;;;;;;;5054789;28;20017;-67
2021/06/27 08:15:18;;;;;;;3.97;1.23;;;;;;;;;;5054614;28;20029;-67
2021/06/27 08:17:44;;;;;;;1.88;1.15;;;;;;;;;;5054750;28;20104;-67
2021/06/27 08:20:11;;;;;;;2.85;1.50;;;;;;;;;;5054568;28;20036;-67
2021/06/27 08:22:37;;;;;;;2.90;1.30;;;;;;;;;;5054501;28;20025;-67
2021/06/27 08:25:04;;;;;;;3.70;1.30;;;27.50;50.20;;;;;;5053077;28;20385;-66
2021/06/27 08:27:30;;;;;;;3.72;1.60;;;;;;;;;;5054483;28;20029;-67
2021/06/27 08:29:56;;;;;;;4.40;1.50;;;;;;;;;;5054448;28;20025;-67
2021/06/27 08:32:22;;;;;;;3.47;1.30;;;;;;;;;;5054404;28;20086;-67
2021/06/27 08:34:48;;;;;;;2.35;1.48;;;;;;;;;;5054080;28;20024;-68
2021/06/27 08:37:14;;;;;;;6.20;1.50;;;;;;;;;;5054231;28;20074;-68
2021/06/27 08:39:40;;;;;;;1.73;1.30;;;;;;;;;;5054024;28;20031;-68
2021/06/27 08:42:06;;;;;;;3.75;1.20;;;;;;;;;;5054175;28;20028;-68
2021/06/27 08:44:34;;;;;;;9.65;1.05;;;;;;;;;;5054142;28;20041;-72
2021/06/27 08:47:02;;;;;;;2.88;1.30;;;;;;;;;;5053713;28;20048;-69
2021/06/27 08:49:29;;;;;;;4.20;2.40;;;;;;;;;;5054308;28;20048;-71
2021/06/27 08:51:56;;;;;;;5.20;1.50;;;;;;;;;;5053803;28;20032;-70
2021/06/27 08:54:22;;;;;;;3.08;1.38;;;;;;;;;;5053858;28;20040;-68
2021/06/27 08:56:48;;;;;;;4.43;1.52;;;;;;;;;;5053948;28;20485;-69
2021/06/27 08:59:14;;;;;;;2.90;1.20;;;;;;;;;;5053510;28;20043;-71
2021/06/27 09:01:41;;;;;;;5.32;1.35;;;;;;;;;;5052499;28;20051;-68
2021/06/27 09:04:07;;;;;;;5.50;1.88;;;;;;;;;;5053696;28;20094;-67
2021/06/27 09:06:35;;;;;;;2.25;1.20;;;;;;;;;;5053579;28;20025;-66
2021/06/27 09:09:23;;;;;;;3.88;1.50;;;;;;;;;;5053668;28;20027;-67
2021/06/27 09:12:08;;;;;;;7.97;1.48;;;;;;;;;;5053652;28;20112;-72
2021/06/27 09:14:34;;;;;;;3.00;1.30;;;;;;;;;;5052138;28;20465;-69
2021/06/27 09:17:06;;;;;;;3.65;1.58;;;;;;;;;;5053505;28;20049;-70
2021/06/27 09:19:32;;;;;;;2.22;1.23;;;;;;;;;;5053494;28;20032;-66
2021/06/27 09:22:13;;;;;;;3.05;1.45;;;;;;;;;;5053485;28;20029;-66
2021/06/27 09:24:39;;;;;;;2.35;1.65;;;;;;;;;;5053408;28;20020;-67
2021/06/27 09:27:15;;;;;;;5.65;1.63;;;;;;;;;;5053336;28;20084;-66
2021/06/27 09:29:41;;;;;;;6.13;2.13;;;;;;;;;;5053443;28;20531;-66
2021/06/27 09:32:20;;;;;;;2.28;1.38;;;;;;;;;;5053398;28;20028;-66
2021/06/27 09:34:47;;;;;;;2.45;1.52;;;;;;;;;;5053362;28;20025;-66
2021/06/27 09:37:14;;;;;;;5.05;1.42;;;;;;;;;;5053431;28;20036;-66
2021/06/27 09:40:13;;;;;;;2.22;1.40;;;;;;;;;;5053605;28;20082;-67
2021/06/27 09:42:39;;;;;;;2.95;1.65;;;;;;;;;;5019779;28;20485;-66
2021/06/27 09:45:06;;;;;;;4.43;1.38;;;;;;;;;;5053139;28;20044;-67
2021/06/27 09:47:32;;;;;;;3.28;1.15;;;;;;;;;;5053107;28;20056;-67
2021/06/27 09:49:59;;;;;;;2.97;1.20;;;;;;;;;;5052968;28;20033;-66
2021/06/27 09:52:39;;;;;;;5.75;1.50;;;;;;;;;;5052071;28;20457;-66
2021/06/27 09:55:07;;;;;;;2.08;1.15;;;;;;;;;;5052852;28;20033;-66
2021/06/27 09:57:33;;;;;;;1.60;1.23;;;;;;;;;;5052982;28;20049;-66
2021/06/27 09:59:59;;;;;;;4.32;1.20;;;;;;;;;;5053453;28;20365;-66
2021/06/27 10:02:25;;;;;;;3.85;1.30;;;;;;;;;;5052904;28;20461;-66
2021/06/27 10:04:51;;;;;;;2.55;1.65;;;;;;;;;;5053218;28;20025;-67
2021/06/27 10:07:17;;;;;;;3.08;1.60;;;;;;;;;;5052979;28;20493;-67
2021/06/27 10:09:43;;;;;;;2.05;1.15;;;;;;;;;;5053091;28;20044;-67
2021/06/27 10:12:16;;;;;;;4.60;1.60;;;;;;;;;;5052694;28;20028;-67
2021/06/27 10:14:49;;;;;;;4.82;1.25;;;;;;;;;;5053019;28;20067;-67
2021/06/27 10:17:16;;;;;;;2.15;1.60;;;;;;;;;;5052870;28;20038;-67
2021/06/27 10:19:42;;;;;;;2.97;1.38;;;;;;;;;;5052810;28;20029;-66
2021/06/27 10:22:08;;;;;;;7.40;1.50;;;;;;;;;;5052658;28;20013;-66
2021/06/27 10:24:34;;;;;;;2.80;1.33;;;;;;;;;;5052927;28;20029;-66
2021/06/27 10:27:00;;;;;;;4.28;1.20;;;;;;;;;;5052740;28;20064;-67
2021/06/27 10:29:27;;;;;;;5.05;1.55;;;;;;;;;;5052936;28;20078;-66
2021/06/27 10:31:54;;;;;;;8.10;1.52;;;;;;;;;;5052466;28;20029;-67
2021/06/27 10:34:21;;;;;;;3.05;1.40;;;;;;;;;;5052441;28;20029;-67
2021/06/27 10:36:52;;;;;;;3.78;1.30;;;;;;;;;;5052530;28;20078;-66
2021/06/27 10:39:19;;;;;;;3.22;1.33;;;;;;;;;;5052594;28;20033;-67
2021/06/27 10:41:59;;;;;;;2.53;1.10;;;;;;;;;;5052548;28;20373;-68
2021/06/27 10:44:46;;;;;;;3.33;1.37;;;;;;;;;;5052366;28;20535;-67
2021/06/27 10:47:28;;;;;;;3.90;1.30;;;;;;;;;;5041969;28;20064;-67
2021/06/27 10:49:55;;;;;;;3.13;1.50;;;;;;;;;;5052246;28;20437;-66
2021/06/27 10:52:21;;;;;;;2.03;1.25;;;;;;;;;;5052544;28;20029;-66
2021/06/27 10:55:07;;;;;;;2.40;1.40;;;;;;;;;;5052594;28;20074;-66
2021/06/27 10:57:52;;;;;;;2.17;1.40;;;;;;;;;;5052391;28;20024;-67
2021/06/27 11:00:18;;;;;;;4.22;1.50;;;;;;;;;;5052441;28;20029;-67
2021/06/27 11:02:44;;;;;;;3.03;1.40;;;;;;;;;;5052409;28;20073;-66
2021/06/27 11:05:29;;;;;;;2.72;1.38;;;;;;;;;;5056276;28;20362;-67
2021/06/27 11:07:55;;;;;;;2.22;1.35;;;;;;;;;;5056172;28;20033;-66
2021/06/27 11:10:24;;;;;;;5.05;1.20;;;;;;;;;;5055827;28;20032;-66
2021/06/27 11:12:57;;;;;;;3.05;1.23;;;;;;;;;;5055629;28;20106;-66
2021/06/27 11:15:23;;;;;;;3.10;1.20;;;;;;;;;;5056030;28;20017;-66
2021/06/27 11:17:56;;;;;;;2.63;1.40;;;;;;;;;;5055698;28;20036;-67
2021/06/27 11:20:23;;;;;;;4.80;1.55;;;;;;;;;;5054490;28;20025;-66
2021/06/27 11:22:50;;;;;;;3.13;1.27;;;;;;;;;;5055208;28;20033;-66
2021/06/27 11:25:34;;;;;;;5.13;1.30;;;;;;;;;;5055593;28;20025;-66
2021/06/27 11:28:21;;;;;;;2.85;1.10;;;;;;;;;;5055358;28;20481;-67
2021/06/27 11:30:47;;;;;;;2.85;1.30;;;;;;;;;;5045038;28;20096;-66
2021/06/27 11:33:24;;;;;;;4.88;1.40;;;;;;;;;;5055537;28;20096;-66
2021/06/27 11:36:00;;;;;;;2.63;1.33;;;;;;;;;;5055272;28;20029;-66
2021/06/27 11:38:44;;;;;;;2.40;1.10;;;;;;;;;;5055534;28;20427;-67
2021/06/27 11:41:24;;;;;;;1.40;1.08;;;;;;;;;;5055555;28;20092;-67
2021/06/27 11:44:01;;;;;;;4.93;1.20;;;;;;;;;;5054815;28;20049;-66
2021/06/27 11:46:29;;;;;;;2.58;1.20;;;;;;;;;;5055208;28;20420;-66
2021/06/27 11:48:55;;;;;;;2.95;1.33;;;;;;;;;;5055385;28;20099;-67
2021/06/27 11:51:32;;;;;;;4.57;1.45;;;;;;;;;;5055252;28;20021;-66
2021/06/27 11:53:58;;;;;;;3.63;1.23;;;;;;;;;;5055145;28;20028;-67
2021/06/27 11:56:24;;;;;;;3.42;1.30;;;;;;;;;;5055081;28;20064;-66
2021/06/27 11:59:08;;;;;;;5.43;1.52;;;;;;;;;;5054675;28;20046;-66
2021/06/27 12:01:34;;;;;;;2.85;1.27;;;;;;;;;;5054874;28;20025;-67
2021/06/27 12:04:00;;;;;;;2.08;1.40;;;;;;;;;;5054818;28;20126;-66
2021/06/27 12:06:34;;;;;;;3.15;1.60;;;;;;;;;;5054935;28;20028;-66
2021/06/27 12:09:00;;;;;;;2.70;1.30;;;;;;;;;;5053348;28;20037;-67
2021/06/27 12:11:26;;;;;;;2.83;1.17;;;;;;;;;;5054788;28;20516;-67
2021/06/27 12:13:56;;;;;;;4.55;1.40;;;;;;;;;;5054612;28;20033;-66
2021/06/27 12:16:29;;;;;;;6.40;1.17;;;;;;;;;;5053818;28;20370;-66
2021/06/27 12:18:57;;;;;;;5.45;1.50;;;;;;;;;;5054835;28;20473;-66
2021/06/27 12:21:26;;;;;;;5.15;1.25;;;;;;;;;;5054569;28;20036;-66
2021/06/27 12:23:55;;;;;;;5.70;1.65;;;;;;;;;;5054538;28;20032;-67
2021/06/27 12:26:22;;;;;;;3.53;1.40;;;;;;;;;;5054467;28;20031;-67
2021/06/27 12:28:50;;;;;;;2.88;1.33;;;;;;;;;;5054203;28;20104;-66
2021/06/27 12:31:20;;;;;;;3.72;1.35;;;;;;;;;;5054567;28;20017;-67
2021/06/27 12:33:50;;;;;;;6.53;1.42;;;;;;;;;;5054271;28;20032;-67
2021/06/27 12:36:27;;;;;;;2.72;1.30;;;;;;;;;;5054299;28;20049;-67
2021/06/27 12:38:55;;;;;;;1.70;1.10;;;;;;;;;;5054419;28;20021;-66
2021/06/27 12:41:23;;;;;;;1.98;1.38;;;;;;;;;;5054311;28;20021;-67
2021/06/27 12:43:54;;;;;;;4.30;1.33;;;;;;;;;;5053716;28;20095;-66
2021/06/27 12:46:22;;;;;;;2.30;1.20;;;;;;;;;;5054022;28;20397;-67
2021/06/27 12:48:50;;;;;;;5.22;1.30;;;;;;;;;;5053769;28;20086;-66
2021/06/27 12:51:34;;;;;;;3.58;1.40;;;;;;;;;;5053873;28;20033;-66
2021/06/27 12:54:01;;;;;;;2.83;1.20;;;;;;;;;;5053515;28;20021;-67
2021/06/27 12:56:43;;;;;;;2.70;1.33;;;;;;;;;;5053941;28;20104;-67
2021/06/27 12:59:09;;;;;;;5.28;1.30;;;;;;;;;;5053960;28;20021;-66
2021/06/27 13:01:53;;;;;;;2.83;1.25;;;;;;;;;;5052463;28;20033;-66
2021/06/27 13:04:23;;;;;;;5.18;1.25;;;;;;;;;;5053913;28;20021;-67
2021/06/27 13:06:56;;;;;;;3.72;1.30;;;;;;;;;;5053817;28;20104;-66
2021/06/27 13:09:22;;;;;;;1.85;1.25;;;;;;;;;;5053562;28;20029;-66
2021/06/27 13:12:07;;;;;;;5.28;1.33;;;;;;;;;;5054007;28;20035;-66
2021/06/27 13:14:34;;;;;;;3.13;1.10;;;;;;;;;;5053697;28;20032;-67
2021/06/27 13:17:07;;;;;;;4.35;1.30;;;;;;;;;;5053690;28;20144;-67
2021/06/27 13:19:33;;;;;;;3.58;1.33;;;;;;;;;;5053584;28;20025;-67
2021/06/27 13:22:12;;;;;;;8.65;1.10;;;;;;;;;;5053207;28;20055;-67
2021/06/27 13:24:56;;;;;;;5.65;1.08;;;;;;;;;;5053429;28;20500;-67
2021/06/27 13:27:23;;;;;;;2.40;1.10;;;;;;;;;;5053383;28;20029;-67
2021/06/27 13:30:06;;;;;;;7.30;1.50;;;;;;;;;;5053583;28;20021;-67
2021/06/27 13:32:32;;;;;;;3.38;1.27;;;;;;;;;;5053501;28;20028;-67
2021/06/27 13:34:59;;;;;;;4.50;1.25;;;;;;;;;;5053057;28;20021;-66
2021/06/27 13:37:25;;;;;;;1.30;1.10;;;;;;;;;;5053348;28;20389;-66
2021/06/27 13:39:51;;;;;;;9.60;2.00;;;;;;;;;;5053111;28;20029;-66
2021/06/27 13:42:17;;;;;;;2.58;1.20;;;;;;;;;;5053030;28;20070;-67
2021/06/27 13:44:56;;;;;;;7.15;1.15;;;;;;;;;;5052851;28;20496;-66
2021/06/27 13:47:22;;;;;;;2.08;1.00;;;;;;;;;;5053178;28;20098;-67
2021/06/27 13:49:48;;;;;;;1.45;1.02;;;;;;;;;;5053124;28;20103;-67
2021/06/27 13:52:14;;;;;;;6.57;1.27;;;;;;;;;;5053054;28;20492;-66
2021/06/27 13:54:40;;;;;;;1.70;1.10;;;;;;;;;;5053011;28;20033;-67
2021/06/27 13:57:06;;;;;;;4.22;1.27;;;;;;;;;;5053176;28;20028;-66
2021/06/27 13:59:32;;;;;;;1.83;1.00;;;;;;;;;;5052797;28;20024;-66
2021/06/27 14:01:58;;;;;;;2.00;0.98;;;;;;;;;;5052912;28;20043;-67
2021/06/27 14:04:24;;;;;;;2.22;1.20;;;;;;;;;;5052796;28;20442;-67
2021/06/27 14:06:50;;;;;;;4.03;1.33;;;;;;;;;;5052972;28;20056;-66
2021/06/27 14:09:17;;;;;;;3.70;1.25;;;;;;;;;;5052874;28;20044;-66
2021/06/27 14:11:44;;;;;;;1.55;1.10;;;;;;;;;;5052933;28;20021;-67
2021/06/27 14:14:10;;;;;;;3.10;1.30;;;;;;;;;;5052599;28;20469;-67
2021/06/27 14:16:37;;;;;;;4.10;1.25;;;;;;;;;;5052763;28;20501;-67
2021/06/27 14:19:03;;;;;;;1.50;1.08;;;;;;;;;;5052991;28;20029;-66
2021/06/27 14:21:30;;;;;;;2.60;1.05;;;;;;;;;;5052714;28;20562;-67
2021/06/27 14:23:56;;;;;;;6.80;1.80;;;;;;;;;;5052557;28;20480;-67
2021/06/27 14:26:22;;;;;;;1.48;1.27;;;;;;;;;;5051045;28;20825;-67
2021/06/27 14:28:48;;;;;;;4.00;1.00;;;;;;;;;;5049802;28;20041;-68
2021/06/27 14:31:14;;;;;;;2.97;1.10;;;;;;;;;;5050428;28;20044;-67
2021/06/27 14:33:40;;;;;;;2.60;1.20;;;;;;;;;;5052653;28;20469;-67
2021/06/27 14:36:07;;;;;;;4.22;1.10;;;;;;;;;;5052633;28;20028;-67
2021/06/27 14:38:33;;;;;;;2.22;1.23;;;;;;;;;;5054483;28;20379;-66